Main page
METAR-TAF:

METAR-TAF

Airports :

Mendoza, Argentina

Governor Francisco Gabrielli International Airport

latitude: 32-50S, longitude: 068-47W, elevation: 705 m

Current weather observation

The report was made 31 minutes ago, at 10:00 UTC
Wind 4 kt from the East
Temperature 7°C
Humidity 87%
Pressure 1022 hPa
Visibility: 8000 m
Few clouds at a height of 1500 ft
Broken clouds at a height of 3000 ft

METAR: SAME 281000Z 09004KT 8000 FEW015 BKN030 07/05 Q1022

Time: 07:31 (10:31 UTC)

Forecast

The report was made 5 hours and 31 minutes ago, at 05:00 UTC
Forecast valid from 28 at 06 UTC to 29 at 06 UTC
Wind 3 kt from variable directions
Visibility 10 km or more
Broken clouds at a height of 4000 ft
Probability 30% :
Temporary
from 28 at 10 UTC to 28 at 13 UTC
Visibility: 5000 m
haze, mist
Becoming
from 28 at 14 UTC to 28 at 16 UTC
Wind 10 kt from the Northeast

TAF: SAME 280500Z 2806/2906 VRB03KT 9999 BKN040 TX15/2820Z TN05/2810Z PROB30 TEMPO 2810/2813 5000 HZ BR BECMG 2814/2816 05010KT

Weather observations and forecasts of more than 4000 airports (METAR and TAF reports).

The available stations are represented by yellow and red dots on the map.

Hover mouse over dot to see the name of the station.

Then click to see weather observations and forecasts.

To change the map : click on the green buttons with a black cross to zoom in, on the green button with a dash to zoom out, or on the green arrows for adjacent maps.


METAR-TAF: